TimeMST,TemperatureF,Dew PointF,Humidity,Sea Level PressureIn,VisibilityMPH,Wind Direction,Wind SpeedMPH,Gust SpeedMPH,PrecipitationIn,Events,Conditions,WindDirDegrees,DateUTC
12:53 AM,26.1,18.0,71,29.90,10.0,SSE,6.9,-,N/A,,Clear,150,2013-12-13 07:53:00
1:53 AM,21.9,16.0,78,29.90,10.0,Calm,Calm,-,N/A,,Clear,0,2013-12-13 08:53:00
2:53 AM,21.0,15.1,78,29.89,10.0,Calm,Calm,-,N/A,,Clear,0,2013-12-13 09:53:00
3:53 AM,19.0,14.0,81,29.89,10.0,NE,3.5,-,N/A,,Clear,40,2013-12-13 10:53:00
4:53 AM,19.9,15.1,81,29.89,10.0,South,4.6,-,N/A,,Clear,190,2013-12-13 11:53:00
5:53 AM,19.9,15.1,81,29.90,10.0,North,10.4,-,N/A,,Clear,360,2013-12-13 12:53:00
6:53 AM,21.9,15.1,75,29.91,10.0,WNW,4.6,-,N/A,,Clear,300,2013-12-13 13:53:00
7:53 AM,28.0,15.1,58,29.92,10.0,NNW,10.4,-,N/A,,Clear,340,2013-12-13 14:53:00
8:53 AM,33.1,18.0,54,29.95,10.0,NW,6.9,-,N/A,,Clear,310,2013-12-13 15:53:00
9:53 AM,34.0,19.9,56,29.95,10.0,West,6.9,-,N/A,,Clear,280,2013-12-13 16:53:00
10:53 AM,39.0,21.9,50,29.94,10.0,WNW,8.1,-,N/A,,Clear,290,2013-12-13 17:53:00
11:53 AM,42.1,21.9,45,29.93,10.0,NW,12.7,-,N/A,,Clear,310,2013-12-13 18:53:00
12:53 PM,43.0,21.0,42,29.93,10.0,NW,18.4,21.9,N/A,,Clear,320,2013-12-13 19:53:00
1:53 PM,41.0,23.0,49,29.97,10.0,NW,11.5,-,N/A,,Clear,320,2013-12-13 20:53:00
2:53 PM,39.0,25.0,57,30.01,10.0,NW,11.5,-,N/A,,Partly Cloudy,310,2013-12-13 21:53:00
3:53 PM,37.0,24.1,59,30.05,10.0,NNW,13.8,-,N/A,,Mostly Cloudy,330,2013-12-13 22:53:00
4:53 PM,35.1,25.0,67,30.08,10.0,NNW,4.6,-,N/A,,Overcast,340,2013-12-13 23:53:00
5:53 PM,35.1,25.0,67,30.11,10.0,NNW,9.2,-,N/A,,Overcast,330,2013-12-14 00:53:00
6:53 PM,36.0,24.1,62,30.13,10.0,NNW,11.5,-,N/A,,Overcast,330,2013-12-14 01:53:00
7:53 PM,35.1,27.0,72,30.14,10.0,NW,9.2,-,N/A,,Overcast,310,2013-12-14 02:53:00
8:53 PM,34.0,27.0,75,30.15,10.0,NW,11.5,-,N/A,,Overcast,320,2013-12-14 03:53:00
9:53 PM,34.0,26.1,73,30.17,10.0,NW,9.2,-,N/A,,Overcast,310,2013-12-14 04:53:00
10:53 PM,33.1,26.1,75,30.18,10.0,NW,8.1,-,N/A,,Overcast,310,2013-12-14 05:53:00
11:53 PM,32.0,26.1,79,30.18,10.0,NW,10.4,-,N/A,,Mostly Cloudy,310,2013-12-14 06:53:00